Terminal Aerodrome Forecast
Issued by NWS Indianapolis, IN

Home | Current Version | Previous Version | Text Only | Print | Product List | Glossary On
Versions: 1 2 3 4 5 6 7 8 9 10 11 12 13 14 15 16 17 18 19 20 21 22 23 24 25
882
FTUS43 KIND 181219 AAA
TAFIND
TAF AMD
KIND 181219Z 1812/1918 22005KT 3SM -DZ BR OVC005
     FM181400 23006KT 4SM -DZ BR OVC006
     FM181600 23007KT 4SM BR OVC008
     FM181800 24007KT P6SM OVC015
     FM190200 22008KT P6SM SCT025 SCT080
     FM190700 23008KT P6SM SCT035=

USA.gov is the U.S. government's official web portal to all federal, state and local government web resources and services.